createdAt,value
2018-11-03T00:02:13.681Z,9.03
2018-11-03T00:04:43.091Z,6.90
2018-11-03T00:07:47.326Z,7.45
2018-11-03T00:10:16.747Z,9.70
2018-11-03T00:12:46.759Z,11.30
2018-11-03T00:15:16.735Z,9.00
2018-11-03T00:17:46.305Z,9.08
2018-11-03T00:20:16.089Z,6.92
2018-11-03T00:23:28.282Z,7.90
2018-11-03T00:25:58.461Z,10.48
2018-11-03T00:28:51.474Z,7.12
2018-11-03T00:31:21.457Z,8.58
2018-11-03T00:33:50.878Z,9.30
2018-11-03T00:39:40.795Z,10.23
2018-11-03T00:42:10.399Z,7.72
2018-11-03T00:44:39.732Z,7.12
2018-11-03T00:47:11.737Z,10.32
2018-11-03T00:50:17.439Z,9.70
2018-11-03T00:52:48.171Z,10.70
2018-11-03T00:55:17.415Z,6.53
2018-11-03T01:01:07.763Z,5.87
2018-11-03T01:04:01.775Z,7.37
2018-11-03T01:06:31.643Z,6.22
2018-11-03T01:09:00.777Z,5.08
2018-11-03T01:12:20.060Z,7.70
2018-11-03T01:14:50.170Z,5.78
2018-11-03T01:17:19.423Z,5.62
2018-11-03T01:19:58.663Z,6.37
2018-11-03T01:22:27.923Z,7.28
2018-11-03T01:24:57.017Z,7.45
2018-11-03T01:28:13.170Z,7.05
2018-11-03T01:30:43.064Z,6.35
2018-11-03T01:33:12.270Z,5.87
2018-11-03T01:35:41.666Z,6.90
2018-11-03T01:38:14.100Z,5.53
2018-11-03T01:40:43.280Z,6.03
2018-11-03T01:43:13.307Z,7.28
2018-11-03T01:45:42.421Z,8.15
2018-11-03T01:48:51.589Z,6.87
2018-11-03T01:51:20.861Z,5.72
2018-11-03T01:53:50.683Z,17.12
2018-11-03T01:56:20.632Z,11.68
2018-11-03T01:58:50.185Z,10.68
2018-11-03T02:02:02.348Z,8.63
2018-11-03T02:04:31.647Z,7.45
2018-11-03T02:07:00.949Z,6.72
2018-11-03T02:09:58.210Z,9.08
2018-11-03T02:12:28.181Z,8.75
2018-11-03T02:14:58.691Z,8.80
2018-11-03T02:17:28.067Z,8.28
2018-11-03T02:19:57.326Z,7.40
2018-11-03T02:22:26.685Z,5.15
2018-11-03T02:25:42.380Z,7.40
2018-11-03T02:28:11.483Z,5.85
2018-11-03T02:31:21.579Z,8.70
2018-11-03T02:33:50.766Z,8.30
2018-11-03T02:36:20.032Z,9.70
2018-11-03T02:39:23.446Z,6.10
2018-11-03T02:41:52.549Z,7.33
2018-11-03T02:44:21.809Z,7.50
2018-11-03T02:46:51.309Z,9.25
2018-11-03T02:49:20.494Z,8.85
2018-11-03T02:51:49.734Z,9.88
2018-11-03T02:54:19.562Z,10.00
2018-11-03T02:56:48.642Z,6.67
2018-11-03T02:59:17.911Z,7.08
2018-11-03T03:01:47.188Z,7.67
2018-11-03T03:04:16.412Z,6.37
2018-11-03T03:06:46.012Z,6.92
2018-11-03T03:09:15.348Z,6.55
2018-11-03T03:11:45.390Z,5.95
2018-11-03T03:14:14.634Z,5.25
2018-11-03T03:16:43.829Z,7.20
2018-11-03T03:19:13.051Z,5.87
2018-11-03T03:21:42.195Z,8.48
2018-11-03T03:24:11.469Z,7.58
2018-11-03T03:26:40.725Z,7.33
2018-11-03T03:29:10.349Z,7.47
2018-11-03T03:31:39.389Z,7.08
2018-11-03T03:34:08.536Z,8.05
2018-11-03T03:36:37.833Z,8.38
2018-11-03T03:39:10.285Z,8.10
2018-11-03T03:41:40.117Z,9.23
2018-11-03T03:44:10.191Z,9.45
2018-11-03T03:46:39.326Z,9.33
2018-11-03T03:49:09.559Z,8.95
2018-11-03T03:51:38.681Z,7.75
2018-11-03T03:54:07.947Z,7.80
2018-11-03T03:56:37.292Z,6.92
2018-11-03T03:59:07.805Z,7.60
2018-11-03T04:01:37.907Z,7.85
2018-11-03T04:04:07.594Z,6.92
2018-11-03T04:06:37.251Z,10.05
2018-11-03T04:09:09.488Z,8.40
2018-11-03T04:11:38.707Z,7.28
2018-11-03T04:14:08.448Z,9.45
2018-11-03T04:16:37.993Z,7.92
2018-11-03T04:19:08.552Z,7.37
2018-11-03T04:21:37.705Z,9.70
2018-11-03T04:24:07.620Z,7.85
2018-11-03T04:26:37.693Z,8.63
2018-11-03T04:29:07.428Z,7.30
2018-11-03T04:31:37.080Z,8.10
2018-11-03T04:34:06.375Z,6.22
2018-11-03T04:36:36.835Z,6.20
2018-11-03T04:39:07.751Z,8.78
2018-11-03T04:41:36.992Z,7.53
2018-11-03T04:44:07.758Z,7.92
2018-11-03T04:46:36.852Z,8.83
2018-11-03T04:49:06.098Z,10.53
2018-11-03T04:51:35.982Z,9.68
2018-11-03T04:54:05.267Z,7.37
2018-11-03T04:56:34.453Z,8.23
2018-11-03T04:59:03.679Z,6.35
2018-11-03T05:01:38.145Z,7.67
2018-11-03T05:04:07.372Z,9.55
2018-11-03T05:06:36.649Z,9.08
2018-11-03T05:09:07.741Z,7.72
2018-11-03T05:11:36.940Z,8.28
2018-11-03T05:14:07.344Z,8.95
2018-11-03T05:16:36.956Z,9.55
2018-11-03T05:19:06.503Z,8.33
2018-11-03T05:21:35.759Z,7.08
2018-11-03T05:24:05.924Z,8.03
2018-11-03T05:26:35.300Z,9.25
2018-11-03T05:29:04.710Z,10.10
2018-11-03T05:31:33.980Z,6.92
2018-11-03T05:34:03.368Z,6.75
2018-11-03T05:36:32.668Z,9.68
2018-11-03T05:39:03.860Z,6.72
2018-11-03T05:41:33.439Z,10.23
2018-11-03T05:44:03.833Z,5.08
2018-11-03T05:46:33.362Z,6.08
2018-11-03T05:49:02.704Z,6.03
2018-11-03T05:51:31.978Z,7.35
2018-11-03T05:54:01.403Z,5.78
2018-11-03T05:56:30.714Z,8.05
2018-11-03T05:59:00.031Z,6.00
2018-11-03T06:01:29.140Z,10.00
2018-11-03T06:03:58.236Z,8.48
2018-11-03T06:06:27.604Z,7.25
2018-11-03T06:08:57.685Z,7.30
2018-11-03T06:11:26.749Z,5.83
2018-11-03T06:13:56.262Z,7.50
2018-11-03T06:16:25.707Z,6.65
2018-11-03T06:18:55.386Z,9.88
2018-11-03T06:21:24.723Z,7.28
2018-11-03T06:23:55.431Z,5.95
2018-11-03T06:26:24.632Z,6.42
2018-11-03T06:28:54.160Z,9.25
2018-11-03T06:31:23.641Z,5.83
2018-11-03T06:33:52.954Z,6.05
2018-11-03T06:36:22.359Z,9.35
2018-11-03T06:38:52.932Z,5.67
2018-11-03T06:41:22.072Z,6.83
2018-11-03T06:43:51.500Z,5.95
2018-11-03T06:46:20.829Z,7.12
2018-11-03T06:48:50.307Z,6.45
2018-11-03T06:51:21.418Z,8.80
2018-11-03T06:53:50.575Z,6.40
2018-11-03T06:56:20.274Z,7.05
2018-11-03T06:58:49.389Z,6.62
2018-11-03T07:01:19.736Z,9.13
2018-11-03T07:03:49.257Z,6.33
2018-11-03T07:06:18.432Z,8.08
2018-11-03T07:08:48.945Z,8.65
2018-11-03T07:11:18.333Z,10.48
2018-11-03T07:13:48.132Z,7.97
2018-11-03T07:16:17.725Z,9.15
2018-11-03T07:18:47.373Z,9.70
2018-11-03T07:21:21.639Z,7.65
2018-11-03T07:23:50.901Z,8.68
2018-11-03T07:26:20.348Z,10.15
2018-11-03T07:28:49.691Z,7.17
2018-11-03T07:31:19.099Z,7.42
2018-11-03T07:33:48.357Z,7.15
2018-11-03T07:36:19.256Z,6.47
2018-11-03T07:38:49.015Z,7.05
2018-11-03T07:41:18.346Z,6.90
2018-11-03T07:43:47.766Z,7.67
2018-11-03T07:46:17.792Z,6.20
2018-11-03T07:48:48.138Z,7.42
2018-11-03T07:51:18.686Z,7.97
2018-11-03T07:53:48.815Z,7.40
2018-11-03T07:56:20.444Z,8.00
2018-11-03T07:58:49.714Z,7.83
2018-11-03T08:01:19.667Z,7.50
2018-11-03T08:03:49.622Z,7.17
2018-11-03T08:06:20.107Z,7.28
2018-11-03T08:08:49.424Z,7.33
2018-11-03T08:11:18.568Z,6.17
2018-11-03T08:13:48.800Z,8.40
2018-11-03T08:16:17.967Z,7.00
2018-11-03T08:18:49.171Z,5.72
2018-11-03T08:21:18.725Z,5.90
2018-11-03T08:23:47.932Z,6.53
2018-11-03T08:26:17.105Z,7.42
2018-11-03T08:28:46.336Z,9.28
2018-11-03T08:31:15.713Z,7.12
2018-11-03T08:33:45.623Z,7.53
2018-11-03T08:36:16.829Z,7.90
2018-11-03T08:38:49.403Z,5.67
2018-11-03T08:41:19.249Z,9.00
2018-11-03T08:43:48.568Z,8.60
2018-11-03T08:46:17.721Z,5.43
2018-11-03T08:48:47.147Z,13.93
2018-11-03T08:51:16.346Z,7.57
2018-11-03T08:53:47.105Z,7.57
2018-11-03T08:56:19.392Z,7.60
2018-11-03T08:58:51.089Z,9.30
2018-11-03T09:01:26.004Z,8.67
2018-11-03T09:03:56.748Z,8.27
2018-11-03T09:06:27.203Z,9.50
2018-11-03T09:08:57.080Z,9.13
2018-11-03T09:11:27.328Z,8.10
2018-11-03T09:13:58.750Z,11.00
2018-11-03T09:16:28.145Z,8.93
2018-11-03T09:18:57.972Z,10.10
2018-11-03T09:21:28.219Z,8.77
2018-11-03T09:23:57.668Z,9.60
2018-11-03T09:26:27.277Z,9.43
2018-11-03T09:28:57.959Z,10.43
2018-11-03T09:31:31.275Z,10.67
2018-11-03T09:34:01.170Z,10.60
2018-11-03T09:36:34.027Z,9.40
2018-11-03T09:39:03.497Z,9.40
2018-11-03T09:41:32.715Z,10.67
2018-11-03T09:44:05.748Z,14.03
2018-11-03T09:46:35.097Z,13.57
2018-11-03T09:49:05.174Z,12.33
2018-11-03T09:51:37.536Z,18.53
2018-11-03T09:54:07.376Z,10.43
2018-11-03T09:56:37.015Z,7.37
2018-11-03T09:59:07.947Z,10.77
2018-11-03T10:01:37.131Z,8.03
2018-11-03T10:04:06.755Z,8.60
2018-11-03T10:06:36.227Z,7.70
2018-11-03T10:09:07.007Z,6.47
2018-11-03T10:11:36.258Z,8.07
2018-11-03T10:14:08.089Z,4.77
2018-11-03T10:16:37.363Z,4.53
2018-11-03T10:19:07.604Z,7.13
2018-11-03T10:21:40.506Z,5.73
2018-11-03T10:24:10.344Z,6.30
2018-11-03T10:26:45.859Z,5.57
2018-11-03T10:29:16.733Z,2.80
2018-11-03T10:31:46.524Z,3.47
2018-11-03T10:34:16.642Z,3.10
2018-11-03T10:36:47.550Z,1.53
2018-11-03T10:39:19.712Z,2.80
2018-11-03T10:41:49.747Z,3.70
2018-11-03T10:44:21.838Z,5.83
2018-11-03T10:46:52.780Z,1.30
2018-11-03T10:49:23.631Z,2.13
2018-11-03T10:51:54.564Z,2.90
2018-11-03T10:54:25.767Z,1.47
2018-11-03T10:56:55.188Z,2.03
2018-11-03T10:59:35.589Z,1.70
2018-11-03T11:02:11.170Z,2.50
2018-11-03T11:04:45.458Z,2.47
2018-11-03T11:07:27.000Z,3.43
2018-11-03T11:10:05.964Z,2.47
2018-11-03T11:12:45.064Z,2.10
2018-11-03T11:15:15.448Z,2.93
2018-11-03T11:17:44.677Z,3.40
2018-11-03T11:20:13.938Z,1.83
2018-11-03T11:22:43.753Z,1.83
2018-11-03T11:25:14.149Z,2.50
2018-11-03T11:27:44.072Z,1.03
2018-11-03T11:30:13.360Z,1.13
2018-11-03T11:32:42.863Z,3.43
2018-11-03T11:35:13.341Z,3.07
2018-11-03T11:37:44.030Z,1.30
2018-11-03T11:40:16.292Z,4.97
2018-11-03T11:42:47.086Z,2.37
2018-11-03T11:45:16.365Z,2.20
2018-11-03T11:47:45.806Z,1.93
2018-11-03T11:50:22.052Z,1.73
2018-11-03T11:52:52.419Z,1.50
2018-11-03T11:55:23.843Z,1.77
2018-11-03T11:57:54.314Z,2.70
2018-11-03T12:00:24.810Z,2.07
2018-11-03T12:02:55.659Z,1.50
2018-11-03T12:05:26.335Z,2.07
2018-11-03T12:07:57.717Z,2.77
2018-11-03T12:10:29.370Z,0.93
2018-11-03T12:13:00.600Z,2.50
2018-11-03T12:15:33.586Z,1.33
2018-11-03T12:18:04.085Z,1.43
2018-11-03T12:20:35.098Z,1.70
2018-11-03T12:23:06.685Z,2.83
2018-11-03T12:25:37.115Z,1.80
2018-11-03T12:28:08.654Z,1.00
2018-11-03T12:30:38.207Z,1.67
2018-11-03T12:33:07.945Z,1.20
2018-11-03T12:35:42.681Z,1.53
2018-11-03T12:38:11.857Z,1.87
2018-11-03T12:40:41.226Z,2.70
2018-11-03T12:43:11.377Z,1.90
2018-11-03T12:45:42.759Z,6.90
2018-11-03T12:48:13.569Z,4.83
2018-11-03T12:50:46.308Z,3.73
2018-11-03T12:53:19.591Z,2.43
2018-11-03T12:55:49.105Z,7.50
2018-11-03T12:58:28.090Z,6.80
2018-11-03T13:00:58.604Z,4.43
2018-11-03T13:03:28.193Z,3.53
2018-11-03T13:05:59.188Z,2.20
2018-11-03T13:08:28.493Z,4.00
2018-11-03T13:10:58.745Z,1.77
2018-11-03T13:13:28.196Z,3.87
2018-11-03T13:15:57.742Z,3.87
2018-11-03T13:18:29.191Z,4.73
2018-11-03T13:20:59.387Z,3.80
2018-11-03T13:23:30.335Z,1.47
2018-11-03T13:26:01.099Z,6.27
2018-11-03T13:28:31.117Z,9.77
2018-11-03T13:31:01.080Z,6.07
2018-11-03T13:33:30.267Z,6.10
2018-11-03T13:36:02.990Z,5.37
2018-11-03T13:38:32.370Z,4.83
2018-11-03T13:41:02.228Z,4.17
2018-11-03T13:43:32.261Z,3.67
2018-11-03T13:46:02.740Z,1.90
2018-11-03T13:48:32.195Z,7.27
2018-11-03T13:51:01.477Z,2.13
2018-11-03T13:53:31.258Z,3.03
2018-11-03T13:56:00.729Z,2.23
2018-11-03T13:58:29.859Z,2.07
2018-11-03T14:00:59.714Z,1.90
2018-11-03T14:03:29.279Z,1.40
2018-11-03T14:06:00.721Z,3.07
2018-11-03T14:08:35.705Z,3.70
2018-11-03T14:11:08.196Z,3.50
2018-11-03T14:13:37.845Z,3.63
2018-11-03T14:16:10.158Z,2.73
2018-11-03T14:18:43.862Z,2.67
2018-11-03T14:21:16.016Z,2.60
2018-11-03T14:23:45.354Z,3.83
2018-11-03T14:26:14.781Z,1.83
2018-11-03T14:28:46.815Z,4.23
2018-11-03T14:31:16.321Z,3.73
2018-11-03T14:33:46.047Z,5.53
2018-11-03T14:36:16.595Z,2.53
2018-11-03T14:38:48.214Z,2.33
2018-11-03T14:41:17.483Z,3.67
2018-11-03T14:43:48.249Z,3.53
2018-11-03T14:46:18.607Z,2.23
2018-11-03T14:48:49.721Z,4.67
2018-11-03T14:51:20.087Z,2.93
2018-11-03T14:53:51.281Z,2.20
2018-11-03T14:56:22.442Z,1.80
2018-11-03T14:58:54.349Z,2.20
2018-11-03T15:01:27.123Z,2.20
2018-11-03T15:03:56.586Z,5.90
2018-11-03T15:06:26.983Z,3.57
2018-11-03T15:08:56.783Z,4.97
2018-11-03T15:11:26.192Z,5.27
2018-11-03T15:13:56.572Z,3.57
2018-11-03T15:16:26.500Z,6.47
2018-11-03T15:18:56.181Z,2.80
2018-11-03T15:21:26.242Z,4.63
2018-11-03T15:23:57.567Z,3.50
2018-11-03T15:26:28.779Z,2.43
2018-11-03T15:28:58.177Z,5.93
2018-11-03T15:31:27.505Z,2.73
2018-11-03T15:33:57.079Z,8.17
2018-11-03T15:36:26.836Z,3.27
2018-11-03T15:38:58.033Z,3.93
2018-11-03T15:41:27.536Z,4.70
2018-11-03T15:43:57.080Z,5.10
2018-11-03T15:46:27.239Z,6.30
2018-11-03T15:48:56.736Z,4.43
2018-11-03T15:51:26.944Z,7.20
2018-11-03T15:53:56.706Z,5.20
2018-11-03T15:56:26.453Z,5.83
2018-11-03T15:58:56.252Z,5.70
2018-11-03T16:01:26.277Z,7.77
2018-11-03T16:03:55.524Z,8.63
2018-11-03T16:06:29.420Z,8.00
2018-11-03T16:08:59.179Z,4.90
2018-11-03T16:11:29.724Z,3.53
2018-11-03T16:14:00.096Z,6.70
2018-11-03T16:16:29.573Z,6.40
2018-11-03T16:19:00.488Z,7.70
2018-11-03T16:21:32.451Z,26.13
2018-11-03T16:24:09.231Z,12.20
2018-11-03T16:26:38.805Z,13.73
2018-11-03T16:29:16.732Z,13.37
2018-11-03T16:31:46.302Z,13.27
2018-11-03T16:34:16.622Z,12.40
2018-11-03T16:36:46.077Z,17.70
2018-11-03T16:39:16.447Z,19.50
2018-11-03T16:41:47.208Z,19.67
2018-11-03T16:44:18.423Z,18.90
2018-11-03T16:46:50.241Z,25.13
2018-11-03T16:49:21.770Z,25.37
2018-11-03T16:51:52.061Z,18.27
2018-11-03T16:54:22.503Z,13.17
2018-11-03T16:56:52.469Z,14.73
2018-11-03T16:59:22.383Z,15.80
2018-11-03T17:01:52.700Z,16.47
2018-11-03T17:04:23.353Z,18.20
2018-11-03T17:06:53.203Z,22.60
2018-11-03T17:09:23.201Z,31.17
2018-11-03T17:11:52.777Z,21.90
2018-11-03T17:14:22.147Z,12.13
2018-11-03T17:16:52.104Z,6.70
2018-11-03T17:19:22.089Z,5.70
2018-11-03T17:21:51.744Z,5.27
2018-11-03T17:24:24.032Z,10.53
2018-11-03T17:26:53.807Z,5.97
2018-11-03T17:29:23.672Z,9.63
2018-11-03T17:32:04.226Z,15.47
2018-11-03T17:34:34.771Z,11.03
2018-11-03T17:37:04.937Z,15.50
2018-11-03T17:39:38.390Z,12.17
2018-11-03T17:42:07.624Z,13.30
2018-11-03T17:44:38.558Z,16.45
2018-11-03T17:47:10.789Z,13.97
2018-11-03T17:49:41.563Z,10.90
2018-11-03T17:52:14.008Z,10.50
2018-11-03T17:54:43.337Z,7.83
2018-11-03T17:57:21.003Z,8.37
2018-11-03T17:59:51.844Z,11.53
2018-11-03T18:02:23.055Z,9.95
2018-11-03T18:04:53.263Z,11.33
2018-11-03T18:07:24.338Z,6.90
2018-11-03T18:09:55.807Z,9.70
2018-11-03T18:12:26.337Z,9.35
2018-11-03T18:15:00.476Z,9.48
2018-11-03T18:17:30.503Z,12.65
2018-11-03T18:20:01.263Z,11.10
2018-11-03T18:22:34.444Z,10.28
2018-11-03T18:25:05.176Z,8.20
2018-11-03T18:27:34.704Z,9.85
2018-11-03T18:30:06.283Z,12.25
2018-11-03T18:32:39.231Z,9.98
2018-11-03T18:35:10.273Z,12.65
2018-11-03T18:38:26.782Z,9.98
2018-11-03T18:40:57.839Z,9.75
2018-11-03T18:44:16.834Z,11.85
2018-11-03T18:46:48.473Z,9.80
2018-11-03T18:50:08.148Z,12.50
2018-11-03T18:52:43.095Z,11.10
2018-11-03T18:55:47.615Z,12.23
2018-11-03T18:58:23.208Z,17.65
2018-11-03T19:00:54.086Z,12.53
2018-11-03T19:04:14.190Z,10.60
2018-11-03T19:06:48.023Z,17.40
2018-11-03T19:09:47.764Z,26.90
2018-11-03T19:12:18.226Z,15.00
2018-11-03T19:15:22.838Z,12.90
2018-11-03T19:17:53.628Z,12.07
2018-11-03T19:20:33.874Z,10.75
2018-11-03T19:23:04.663Z,13.40
2018-11-03T19:25:34.409Z,7.25
2018-11-03T19:28:43.839Z,10.48
2018-11-03T19:31:13.768Z,9.13
2018-11-03T19:34:23.197Z,7.25
2018-11-03T19:36:54.755Z,9.45
2018-11-03T19:39:26.443Z,7.35
2018-11-03T19:45:39.323Z,9.80
2018-11-03T19:48:10.142Z,8.63
2018-11-03T19:50:40.820Z,8.85
2018-11-03T19:53:57.174Z,7.20
2018-11-03T19:56:28.941Z,8.53
2018-11-03T19:59:38.204Z,7.50
2018-11-03T20:02:10.340Z,8.83
2018-11-03T20:08:02.508Z,8.15
2018-11-03T20:10:41.261Z,10.55
2018-11-03T20:13:12.030Z,12.03
2018-11-03T20:15:44.015Z,11.28
2018-11-03T20:18:42.431Z,7.45
2018-11-03T20:21:13.721Z,10.80
2018-11-03T20:24:13.205Z,10.90
2018-11-03T20:26:51.258Z,8.68
2018-11-03T20:30:01.490Z,10.58
2018-11-03T20:32:33.207Z,9.30
2018-11-03T20:35:37.794Z,10.53
2018-11-03T20:38:08.379Z,12.37
2018-11-03T20:41:03.413Z,8.43
2018-11-03T20:43:33.590Z,10.20
2018-11-03T20:46:07.258Z,8.00
2018-11-03T20:49:10.742Z,7.80
2018-11-03T20:51:41.470Z,6.15
2018-11-03T20:54:47.157Z,8.78
2018-11-03T20:57:23.961Z,8.25
2018-11-03T21:00:36.523Z,10.00
2018-11-03T21:03:09.172Z,10.95
2018-11-03T21:06:03.424Z,10.15
2018-11-03T21:08:35.320Z,8.28
2018-11-03T21:11:05.179Z,9.33
2018-11-03T21:14:10.059Z,10.88
2018-11-03T21:16:39.746Z,11.20
2018-11-03T21:19:44.112Z,9.43
2018-11-03T21:22:14.390Z,11.18
2018-11-03T21:25:11.333Z,11.68
2018-11-03T21:27:41.733Z,13.65
2018-11-03T21:30:57.326Z,9.88
2018-11-03T21:33:26.821Z,10.53
2018-11-03T21:36:24.833Z,13.83
2018-11-03T21:38:55.380Z,9.60
2018-11-03T21:41:28.425Z,13.90
2018-11-03T21:44:44.226Z,12.78
2018-11-03T21:47:17.747Z,17.27
2018-11-03T21:50:29.647Z,17.73
2018-11-03T21:52:59.286Z,11.65
2018-11-03T21:55:56.806Z,10.23
2018-11-03T21:58:27.611Z,12.82
2018-11-03T22:00:57.823Z,13.05
2018-11-03T22:04:09.599Z,12.25
2018-11-03T22:06:40.138Z,11.70
2018-11-03T22:09:46.209Z,11.43
2018-11-03T22:12:18.731Z,11.10
2018-11-03T22:15:18.815Z,14.55
2018-11-03T22:17:50.815Z,20.45
2018-11-03T22:20:50.199Z,17.80
2018-11-03T22:23:21.623Z,17.07
2018-11-03T22:26:14.109Z,11.73
2018-11-03T22:28:45.999Z,13.65
2018-11-03T22:31:18.688Z,13.75
2018-11-03T22:34:29.086Z,14.30
2018-11-03T22:37:02.325Z,12.78
2018-11-03T22:40:14.249Z,16.65
2018-11-03T22:42:44.091Z,14.55
2018-11-03T22:45:56.256Z,12.80
2018-11-03T22:48:28.120Z,16.10
2018-11-03T22:51:19.729Z,16.60
2018-11-03T22:53:49.604Z,14.83
2018-11-03T22:56:28.202Z,14.78
2018-11-03T22:59:38.661Z,13.30
2018-11-03T23:02:09.876Z,15.60
2018-11-03T23:05:26.682Z,15.45
2018-11-03T23:07:58.378Z,12.03
2018-11-03T23:11:05.185Z,12.18
2018-11-03T23:13:35.569Z,16.32
2018-11-03T23:16:19.593Z,18.50
2018-11-03T23:18:51.190Z,14.40
2018-11-03T23:21:22.613Z,13.60
2018-11-03T23:24:32.998Z,18.55
2018-11-03T23:27:04.162Z,15.23
2018-11-03T23:30:00.351Z,17.55
2018-11-03T23:32:30.298Z,14.93
2018-11-03T23:35:46.263Z,16.17
2018-11-03T23:38:18.198Z,13.30
2018-11-03T23:41:34.969Z,17.57
2018-11-03T23:44:05.279Z,15.58
2018-11-03T23:46:35.550Z,19.20
2018-11-03T23:49:05.129Z,16.87
2018-11-03T23:51:34.694Z,15.58
2018-11-03T23:54:53.476Z,18.77
2018-11-03T23:57:22.764Z,19.85
